Time;durP1;ratioP1;P1;durP2;ratioP2;P2;SDS_P1;SDS_P2;PMS_P1;PMS_P2;Temp;Humidity;BMP_temperature;BMP_pressure;BME280_temperature;BME280_humidity;BME280_pressure;Samples;Min_cycle;Max_cycle;Signal;HPM_P1;HPM_P2
2023/05/16 00:00:24;;;;;;;51.60;21.20;;;;;;;;;;6164499;23;20028;-80
2023/05/16 00:02:50;;;;;;;43.83;19.98;;;;;;;;;;6212718;23;20009;-79
2023/05/16 00:05:16;;;;;;;47.33;20.02;;;;;;;;;;6213222;23;20339;-80
2023/05/16 00:07:43;;;;;;;46.15;20.05;;;;;;;;;;6187530;23;20009;-78
2023/05/16 00:10:08;;;;;;;42.42;18.80;;;;;;;;;;6187634;23;20005;-78
2023/05/16 00:12:35;;;;;;;39.28;19.42;;;;;;;;;;6214550;23;20076;-79
2023/05/16 00:15:01;;;;;;;42.53;18.73;;;;;;;;;;6214165;23;20433;-79
2023/05/16 00:17:27;;;;;;;43.65;18.45;;;;;;;;;;6213799;23;20007;-79
2023/05/16 00:19:57;;;;;;;45.67;20.92;;;;;;;;;;6187838;23;20008;-79
2023/05/16 00:22:23;;;;;;;48.30;20.17;;;;;;;;;;6212789;23;20395;-79
2023/05/16 00:24:48;;;;;;;46.80;19.30;;;;;;;;;;6187144;23;20016;-79
2023/05/16 00:27:14;;;;;;;48.75;19.80;;;;;;;;;;6212628;23;20004;-79
2023/05/16 00:29:39;;;;;;;45.58;18.67;;;;;;;;;;6213973;23;20012;-79
2023/05/16 00:32:07;;;;;;;45.92;20.02;;;;;;;;;;6187260;23;20379;-78
2023/05/16 00:34:33;;;;;;;40.05;19.48;;;;;;;;;;6212630;23;20011;-80
2023/05/16 00:36:58;;;;;;;41.65;21.08;;;;;;;;;;6214289;23;20079;-79
2023/05/16 00:39:24;;;;;;;43.45;20.67;;;;;;;;;;6187318;23;20005;-78
2023/05/16 00:41:49;;;;;;;57.13;22.98;;;;;;;;;;6212358;23;20007;-79
2023/05/16 00:44:15;;;;;;;51.10;22.73;;;;;;;;;;6187226;23;20437;-77
2023/05/16 00:46:40;;;;;;;54.50;21.92;;;;;;;;;;6212377;23;20092;-77
2023/05/16 00:49:06;;;;;;;46.45;21.23;;;;;;;;;;6212108;23;20012;-78
2023/05/16 00:51:32;;;;;;;44.05;19.83;;;;;;;;;;6187857;23;20016;-78
2023/05/16 00:53:58;;;;;;;40.88;19.85;;;;;;;;;;6214037;23;20001;-79
2023/05/16 00:56:23;;;;;;;45.33;18.27;;;;;;;;;;6212214;23;20004;-78
2023/05/16 00:58:49;;;;;;;43.63;18.25;;;;;;;;;;6187042;23;20004;-79
2023/05/16 01:01:15;;;;;;;39.33;16.45;;;;;;;;;;6186700;23;20012;-78
2023/05/16 01:03:41;;;;;;;38.92;17.17;;;;;;;;;;6187316;23;20012;-79
2023/05/16 01:06:07;;;;;;;40.75;17.85;;;;;;;;;;6213518;23;20064;-78
2023/05/16 01:08:32;;;;;;;39.92;16.48;;;;;;;;;;6211754;23;20008;-77
2023/05/16 01:11:05;;;;;;;37.90;15.65;;;;;;;;;;6212138;23;20005;-78
2023/05/16 01:14:03;;;;;;;36.80;16.17;;;;;;;;;;6188090;23;20084;-79
2023/05/16 01:16:38;;;;;;;34.28;15.85;;;;;;;;;;6205041;23;20008;-79
2023/05/16 01:19:15;;;;;;;36.25;16.85;;;;;;;;;;6187650;23;20091;-79
2023/05/16 01:21:52;;;;;;;33.42;16.00;;;;;;;;;;6211982;23;20012;-78
2023/05/16 01:24:38;;;;;;;36.42;16.45;;;;;;;;;;6188887;23;20409;-77
2023/05/16 01:27:04;;;;;;;31.88;14.73;;;;;;;;;;6211977;23;20054;-78
2023/05/16 01:29:29;;;;;;;36.03;15.23;;;;;;;;;;6187302;23;20036;-79
2023/05/16 01:31:54;;;;;;;31.40;14.70;;;;;;;;;;6187041;23;19996;-79
2023/05/16 01:34:20;;;;;;;29.65;14.05;;;;;;;;;;6212008;23;20007;-79
2023/05/16 01:36:51;;;;;;;29.90;14.45;;;;;;;;;;6213296;23;20000;-78
2023/05/16 01:39:40;;;;;;;31.63;13.27;;;;;;;;;;6213390;23;20324;-77
2023/05/16 01:42:14;;;;;;;33.53;13.02;;;;;;;;;;6190648;23;20412;-78
2023/05/16 01:44:47;;;;;;;29.60;13.27;;;;;;;;;;6187054;23;20436;-77
2023/05/16 01:47:13;;;;;;;31.52;11.85;;;;;;;;;;6211930;23;20004;-79
2023/05/16 01:50:00;;;;;;;34.70;13.00;;;;;;;;;;6187217;23;20005;-79
2023/05/16 01:52:58;;;;;;;26.13;12.38;;;;;;;;;;6187171;23;20351;-79
2023/05/16 01:55:39;;;;;;;27.65;11.85;;;;;;;;;;6213616;23;20004;-79
2023/05/16 01:58:04;;;;;;;;;;;;;;;;;;6211939;23;20005;-79
2023/05/16 02:00:30;;;;;;;26.20;11.20;;;;;;;;;;6186951;23;20311;-78
2023/05/16 02:02:56;;;;;;;25.17;12.65;;;;;;;;;;6211848;23;20008;-79
2023/05/16 02:05:21;;;;;;;27.65;11.95;;;;;;;;;;6211677;23;20027;-78
2023/05/16 02:07:46;;;;;;;32.38;11.90;;;;;;;;;;6211661;23;20009;-79
2023/05/16 02:10:12;;;;;;;23.73;11.63;;;;;;;;;;6211816;23;20009;-80
2023/05/16 02:12:38;;;;;;;22.60;11.13;;;;;;;;;;6186548;23;20091;-80
2023/05/16 02:15:04;;;;;;;23.23;11.35;;;;;;;;;;6211659;23;20016;-79
2023/05/16 02:17:29;;;;;;;19.48;10.40;;;;;;;;;;6211672;23;20074;-79
2023/05/16 02:19:55;;;;;;;23.88;10.93;;;;;;;;;;6211716;23;20428;-80
2023/05/16 02:22:20;;;;;;;35.85;11.13;;;;;;;;;;6211587;23;20047;-78
2023/05/16 02:24:46;;;;;;;26.90;10.85;;;;;;;;;;6211770;23;20005;-79
2023/05/16 02:27:11;;;;;;;23.17;10.60;;;;;;;;;;6211370;23;20008;-78
2023/05/16 02:29:36;;;;;;;19.55;9.63;;;;;;;;;;6211574;23;20066;-79
2023/05/16 02:32:02;;;;;;;23.90;11.30;;;;;;;;;;6211698;23;20058;-79
2023/05/16 02:34:27;;;;;;;27.38;11.63;;;;;;;;;;6186698;23;20367;-80
2023/05/16 02:36:53;;;;;;;24.30;10.82;;;;;;;;;;6213113;23;20039;-79
2023/05/16 02:39:18;;;;;;;22.38;11.32;;;;;;;;;;6213787;23;20012;-79
2023/05/16 02:41:43;;;;;;;24.20;11.30;;;;;;;;;;6212072;23;20004;-79
2023/05/16 02:44:09;;;;;;;26.60;11.25;;;;;;;;;;6213061;23;20007;-79
2023/05/16 02:46:35;;;;;;;27.90;11.95;;;;;;;;;;6213388;23;20424;-79
2023/05/16 02:49:01;;;;;;;23.85;11.57;;;;;;;;;;6214924;23;20009;-79
2023/05/16 02:51:27;;;;;;;25.20;12.30;;;;;;;;;;6188386;23;20043;-79
2023/05/16 02:53:52;;;;;;;24.15;11.82;;;;;;;;;;6188464;23;20008;-79
2023/05/16 02:56:18;;;;;;;23.80;11.30;;;;;;;;;;6188170;23;20072;-79
2023/05/16 02:58:47;;;;;;;26.83;12.73;;;;;;;;;;6188465;23;20016;-78
2023/05/16 03:01:12;;;;;;;26.52;13.05;;;;;;;;;;6164052;23;20008;-78
2023/05/16 03:03:37;;;;;;;22.13;12.40;;;;;;;;;;6214804;23;20486;-79
2023/05/16 03:06:03;;;;;;;26.02;12.38;;;;;;;;;;6213534;23;20011;-78
2023/05/16 03:08:28;;;;;;;30.95;12.45;;;;;;;;;;6213009;23;20004;-79
2023/05/16 03:10:54;;;;;;;25.52;12.18;;;;;;;;;;6163251;23;20420;-80
2023/05/16 03:13:19;;;;;;;23.95;11.13;;;;;;;;;;6188580;23;20023;-79
2023/05/16 03:15:46;;;;;;;30.00;12.98;;;;;;;;;;6214743;23;20005;-79
2023/05/16 03:18:11;;;;;;;27.83;13.07;;;;;;;;;;6213232;23;20066;-79
2023/05/16 03:20:37;;;;;;;30.00;12.90;;;;;;;;;;6214659;23;20423;-79
2023/05/16 03:23:06;;;;;;;41.42;12.13;;;;;;;;;;6214538;23;20485;-79
2023/05/16 03:25:32;;;;;;;24.02;12.45;;;;;;;;;;6188796;23;20004;-79
2023/05/16 03:27:57;;;;;;;24.42;12.30;;;;;;;;;;6214662;23;20305;-79
2023/05/16 03:30:22;;;;;;;27.60;13.88;;;;;;;;;;6213113;23;20007;-79
2023/05/16 03:32:48;;;;;;;29.75;13.52;;;;;;;;;;6188613;23;20009;-79
2023/05/16 03:35:13;;;;;;;34.45;13.93;;;;;;;;;;6187841;23;20011;-78
2023/05/16 03:37:39;;;;;;;29.60;14.07;;;;;;;;;;6214395;23;20001;-79
2023/05/16 03:40:05;;;;;;;26.20;13.68;;;;;;;;;;6214824;23;20024;-78
2023/05/16 03:42:31;;;;;;;35.00;14.02;;;;;;;;;;6188231;23;20011;-79
2023/05/16 03:44:56;;;;;;;31.92;13.82;;;;;;;;;;6214550;23;20075;-78
2023/05/16 03:47:22;;;;;;;29.65;13.50;;;;;;;;;;6214610;23;20126;-79
2023/05/16 03:49:47;;;;;;;25.67;13.68;;;;;;;;;;6187755;23;20067;-78
2023/05/16 03:52:13;;;;;;;30.38;13.75;;;;;;;;;;6187812;23;20510;-78
2023/05/16 03:54:38;;;;;;;32.92;14.13;;;;;;;;;;6214164;23;20004;-79
2023/05/16 03:57:04;;;;;;;33.30;14.38;;;;;;;;;;6187844;23;20008;-79
2023/05/16 03:59:30;;;;;;;33.67;15.52;;;;;;;;;;6212128;23;20009;-79
2023/05/16 04:01:55;;;;;;;33.53;16.08;;;;;;;;;;6214522;23;20012;-78
2023/05/16 04:04:21;;;;;;;30.33;15.50;;;;;;;;;;6188253;23;19997;-79
2023/05/16 04:06:47;;;;;;;32.50;14.65;;;;;;;;;;6214431;23;20028;-79
2023/05/16 04:09:12;;;;;;;32.42;15.82;;;;;;;;;;6213410;23;20008;-78
2023/05/16 04:11:38;;;;;;;35.28;17.08;;;;;;;;;;6187753;23;20008;-78
2023/05/16 04:14:03;;;;;;;35.22;17.40;;;;;;;;;;6214353;23;20416;-78
2023/05/16 04:16:28;;;;;;;34.65;17.13;;;;;;;;;;6213973;23;20001;-78
2023/05/16 04:18:55;;;;;;;33.63;17.10;;;;;;;;;;6212873;23;20284;-78
2023/05/16 04:21:21;;;;;;;37.20;17.02;;;;;;;;;;6212353;23;20005;-78
2023/05/16 04:23:46;;;;;;;42.05;18.95;;;;;;;;;;6212702;23;20005;-78
2023/05/16 04:26:13;;;;;;;40.35;17.50;;;;;;;;;;6212278;23;20021;-78
2023/05/16 04:28:38;;;;;;;35.65;17.50;;;;;;;;;;6212429;23;20004;-79
2023/05/16 04:31:04;;;;;;;37.13;16.55;;;;;;;;;;6187394;23;20011;-82
2023/05/16 04:33:30;;;;;;;36.78;16.80;;;;;;;;;;6185825;23;20007;-83
2023/05/16 04:35:57;;;;;;;36.67;15.40;;;;;;;;;;6213047;23;20005;-87
2023/05/16 04:38:23;;;;;;;30.90;14.73;;;;;;;;;;6211663;23;20406;-81
2023/05/16 04:40:49;;;;;;;34.97;15.13;;;;;;;;;;6210007;23;20422;-83
2023/05/16 04:43:17;;;;;;;31.67;14.85;;;;;;;;;;6183733;23;20004;-80
2023/05/16 04:45:42;;;;;;;28.90;14.55;;;;;;;;;;6159143;23;20326;-81
2023/05/16 04:48:12;;;;;;;29.05;14.77;;;;;;;;;;6211479;23;20039;-82
2023/05/16 04:50:37;;;;;;;37.78;15.40;;;;;;;;;;6211622;23;20429;-81
2023/05/16 04:53:03;;;;;;;30.58;15.23;;;;;;;;;;6211797;23;20004;-79
2023/05/16 04:55:28;;;;;;;33.65;15.60;;;;;;;;;;6182857;23;20035;-81
2023/05/16 04:57:57;;;;;;;45.33;15.90;;;;;;;;;;6207027;23;20416;-80
2023/05/16 05:00:33;;;;;;;31.92;15.27;;;;;;;;;;6205795;23;20007;-81
2023/05/16 05:03:22;;;;;;;33.25;14.93;;;;;;;;;;6202938;23;20070;-82
2023/05/16 05:05:48;;;;;;;32.03;14.27;;;;;;;;;;6198053;23;20015;-79
2023/05/16 05:08:20;;;;;;;31.25;15.27;;;;;;;;;;6203781;23;20343;-81
2023/05/16 05:10:46;;;;;;;31.67;15.18;;;;;;;;;;6178466;23;20080;-79
2023/05/16 05:13:18;;;;;;;30.33;15.38;;;;;;;;;;6208013;23;20023;-79
2023/05/16 05:15:45;;;;;;;34.20;15.30;;;;;;;;;;6208861;23;20028;-80
2023/05/16 05:18:43;;;;;;;28.98;15.10;;;;;;;;;;6206773;23;20388;-81
2023/05/16 05:21:10;;;;;;;37.78;15.60;;;;;;;;;;6205804;23;20471;-82
2023/05/16 05:23:37;;;;;;;33.75;14.75;;;;;;;;;;6205455;23;20352;-80
2023/05/16 05:26:03;;;;;;;32.35;14.98;;;;;;;;;;6206294;23;20031;-80
2023/05/16 05:29:14;;;;;;;36.13;15.43;;;;;;;;;;6204032;23;20407;-82
2023/05/16 05:31:43;;;;;;;36.15;16.58;;;;;;;;;;6194182;23;20532;-80
2023/05/16 05:34:09;;;;;;;43.60;17.65;;;;;;;;;;6203433;23;20046;-80
2023/05/16 05:36:39;;;;;;;32.95;16.88;;;;;;;;;;6205648;23;20035;-79
2023/05/16 05:39:28;;;;;;;30.73;15.77;;;;;;;;;;6209724;23;20012;-79
2023/05/16 05:41:53;;;;;;;38.08;15.40;;;;;;;;;;6209699;23;20027;-79
2023/05/16 05:44:19;;;;;;;28.20;14.15;;;;;;;;;;6183485;23;20005;-81
2023/05/16 05:46:45;;;;;;;36.00;13.20;;;;;;;;;;6206968;23;20008;-80
2023/05/16 05:49:11;;;;;;;32.28;13.32;;;;;;;;;;6178677;23;20007;-81
2023/05/16 05:51:36;;;;;;;33.15;12.60;;;;;;;;;;6204278;23;20645;-83
2023/05/16 05:54:02;;;;;;;25.55;12.52;;;;;;;;;;6204515;23;20635;-81
2023/05/16 05:56:27;;;;;;;31.23;12.60;;;;;;;;;;6155259;23;20012;-79
2023/05/16 05:59:04;;;;;;;32.70;13.35;;;;;;;;;;6203054;23;20000;-80
2023/05/16 06:01:44;;;;;;;25.10;13.00;;;;;;;;;;6204477;23;20009;-81
2023/05/16 06:04:15;;;;;;;23.88;12.75;;;;;;;;;;6204866;23;20046;-80
2023/05/16 06:06:40;;;;;;;29.20;12.68;;;;;;;;;;6205415;23;20572;-79
2023/05/16 06:09:06;;;;;;;30.42;12.43;;;;;;;;;;6207580;23;20401;-81
2023/05/16 06:11:31;;;;;;;25.35;11.30;;;;;;;;;;6204002;23;20381;-81
2023/05/16 06:13:57;;;;;;;21.30;11.90;;;;;;;;;;6205468;23;20001;-81
2023/05/16 06:16:25;;;;;;;22.35;11.27;;;;;;;;;;6207318;23;20076;-80
2023/05/16 06:18:51;;;;;;;26.02;10.90;;;;;;;;;;6205571;23;20005;-82
2023/05/16 06:21:16;;;;;;;21.30;10.13;;;;;;;;;;6204632;23;20086;-81
2023/05/16 06:23:51;;;;;;;21.27;9.95;;;;;;;;;;6207658;23;20001;-84
2023/05/16 06:26:17;;;;;;;25.40;10.93;;;;;;;;;;6182463;23;20849;-81
2023/05/16 06:28:42;;;;;;;21.73;9.27;;;;;;;;;;6208761;23;20012;-81
2023/05/16 06:31:08;;;;;;;21.67;10.02;;;;;;;;;;6209906;23;20005;-81
2023/05/16 06:33:39;;;;;;;19.88;9.90;;;;;;;;;;6211475;23;20382;-83
2023/05/16 06:36:10;;;;;;;22.70;11.07;;;;;;;;;;6159468;23;20005;-85
2023/05/16 06:38:45;;;;;;;29.13;12.07;;;;;;;;;;6210411;23;20008;-85
2023/05/16 06:41:11;;;;;;;25.77;11.55;;;;;;;;;;6209626;23;20051;-85
2023/05/16 06:43:36;;;;;;;25.80;11.73;;;;;;;;;;6209919;23;20416;-85
2023/05/16 06:46:11;;;;;;;30.35;11.80;;;;;;;;;;6209179;23;20036;-83
2023/05/16 06:48:36;;;;;;;35.45;12.00;;;;;;;;;;6207355;23;20012;-83
2023/05/16 06:51:02;;;;;;;24.08;11.60;;;;;;;;;;6205790;23;20057;-83
2023/05/16 06:53:28;;;;;;;33.60;11.38;;;;;;;;;;6207235;23;20084;-83
2023/05/16 06:55:54;;;;;;;28.38;10.55;;;;;;;;;;6205737;23;20054;-83
2023/05/16 06:58:19;;;;;;;25.60;11.73;;;;;;;;;;6205482;23;20000;-77
2023/05/16 07:00:45;;;;;;;27.75;11.18;;;;;;;;;;6205993;23;20095;-76
2023/05/16 07:03:10;;;;;;;30.10;10.88;;;;;;;;;;6206146;23;20001;-77
2023/05/16 07:05:36;;;;;;;30.45;10.75;;;;;;;;;;6205741;23;20088;-78
2023/05/16 07:08:01;;;;;;;31.85;11.15;;;;;;;;;;6203320;23;20016;-78
2023/05/16 07:10:27;;;;;;;24.75;11.52;;;;;;;;;;6206780;23;20004;-78
2023/05/16 07:12:52;;;;;;;29.30;11.15;;;;;;;;;;6205976;23;20004;-77
2023/05/16 07:15:18;;;;;;;22.25;9.82;;;;;;;;;;6203221;23;20367;-78
2023/05/16 07:17:43;;;;;;;22.42;9.60;;;;;;;;;;6204529;23;20412;-78
2023/05/16 07:20:12;;;;;;;21.33;9.73;;;;;;;;;;6206311;23;20012;-78
2023/05/16 07:22:38;;;;;;;23.38;10.65;;;;;;;;;;6180718;23;20033;-77
2023/05/16 07:25:04;;;;;;;20.85;9.85;;;;;;;;;;6181210;23;20051;-78
2023/05/16 07:27:30;;;;;;;28.25;10.23;;;;;;;;;;6182116;23;20355;-78
2023/05/16 07:29:56;;;;;;;27.00;10.82;;;;;;;;;;6210179;23;20009;-78
2023/05/16 07:32:21;;;;;;;36.55;10.30;;;;;;;;;;6209153;23;20031;-77
2023/05/16 07:34:47;;;;;;;24.55;9.88;;;;;;;;;;6208933;23;20393;-78
2023/05/16 07:37:13;;;;;;;21.98;9.60;;;;;;;;;;6211224;23;20000;-78
2023/05/16 07:39:39;;;;;;;22.95;9.48;;;;;;;;;;6212641;23;20016;-78
2023/05/16 07:42:06;;;;;;;19.00;9.50;;;;;;;;;;6213605;23;20000;-78
2023/05/16 07:44:31;;;;;;;20.13;9.30;;;;;;;;;;6211348;23;20344;-78
2023/05/16 07:46:57;;;;;;;21.05;9.48;;;;;;;;;;6211309;23;20004;-78
2023/05/16 07:49:22;;;;;;;19.13;9.77;;;;;;;;;;6213480;23;20005;-78
2023/05/16 07:51:47;;;;;;;16.70;8.73;;;;;;;;;;6214137;23;20016;-77
2023/05/16 07:54:13;;;;;;;20.60;9.85;;;;;;;;;;6187216;23;20024;-78
2023/05/16 07:56:38;;;;;;;24.65;11.48;;;;;;;;;;6212380;23;20043;-78
2023/05/16 07:59:04;;;;;;;36.05;14.10;;;;;;;;;;6189149;23;20286;-77
2023/05/16 08:01:30;;;;;;;21.40;9.65;;;;;;;;;;6212939;23;20009;-78
2023/05/16 08:03:55;;;;;;;28.23;10.57;;;;;;;;;;6214266;23;20027;-77
2023/05/16 08:06:21;;;;;;;49.30;10.30;;;;;;;;;;6213237;23;20313;-78
2023/05/16 08:08:46;;;;;;;22.38;9.60;;;;;;;;;;6213892;23;20408;-78
2023/05/16 08:11:11;;;;;;;20.40;9.68;;;;;;;;;;6212818;23;20332;-78
2023/05/16 08:13:37;;;;;;;20.10;9.43;;;;;;;;;;6214338;23;20000;-78
2023/05/16 08:16:02;;;;;;;26.58;9.27;;;;;;;;;;6213011;23;20005;-77
2023/05/16 08:18:28;;;;;;;29.08;11.00;;;;;;;;;;6214629;23;20008;-78
2023/05/16 08:20:53;;;;;;;48.67;17.75;;;;;;;;;;6187584;23;20509;-78
2023/05/16 08:23:19;;;;;;;41.00;14.80;;;;;;;;;;6213235;23;20007;-79
2023/05/16 08:25:44;;;;;;;27.50;10.15;;;;;;;;;;6212776;23;20057;-79
2023/05/16 08:28:10;;;;;;;21.27;9.43;;;;;;;;;;6214428;23;20060;-78
2023/05/16 08:30:35;;;;;;;24.50;10.13;;;;;;;;;;6213894;23;20107;-78
2023/05/16 08:33:03;;;;;;;25.60;9.95;;;;;;;;;;6213248;23;20015;-78
2023/05/16 08:35:29;;;;;;;27.23;10.82;;;;;;;;;;6214474;23;20062;-78
2023/05/16 08:37:55;;;;;;;18.92;9.23;;;;;;;;;;6212424;23;20054;-78
2023/05/16 08:40:21;;;;;;;24.95;9.85;;;;;;;;;;6214782;23;20032;-78
2023/05/16 08:42:46;;;;;;;24.92;10.25;;;;;;;;;;6188059;23;20005;-78
2023/05/16 08:45:12;;;;;;;16.90;9.07;;;;;;;;;;6213915;23;20079;-79
2023/05/16 08:47:40;;;;;;;16.60;8.80;;;;;;;;;;6188060;23;20075;-77
2023/05/16 08:50:06;;;;;;;23.00;9.43;;;;;;;;;;6212543;23;20008;-79
2023/05/16 08:52:32;;;;;;;17.40;9.57;;;;;;;;;;6187099;23;20005;-79
2023/05/16 08:55:03;;;;;;;32.95;15.23;;;;;;;;;;6212515;23;20001;-78
2023/05/16 08:57:29;;;;;;;21.02;10.93;;;;;;;;;;6163591;23;20005;-79
2023/05/16 08:59:56;;;;;;;22.33;9.95;;;;;;;;;;6163693;23;20067;-78
2023/05/16 09:02:21;;;;;;;20.92;9.57;;;;;;;;;;6212348;23;20437;-78
2023/05/16 09:04:48;;;;;;;20.75;9.75;;;;;;;;;;6187411;23;20084;-78
2023/05/16 09:07:13;;;;;;;17.52;9.27;;;;;;;;;;6213019;23;20053;-77
2023/05/16 09:09:39;;;;;;;21.63;9.68;;;;;;;;;;6212881;23;20387;-78
2023/05/16 09:12:05;;;;;;;19.05;10.18;;;;;;;;;;6214085;23;20001;-78
2023/05/16 09:14:30;;;;;;;19.60;9.88;;;;;;;;;;6214833;23;20005;-78
2023/05/16 09:17:05;;;;;;;26.95;10.70;;;;;;;;;;6214089;23;20412;-78
2023/05/16 09:19:39;;;;;;;23.38;11.13;;;;;;;;;;6187625;23;20112;-78
2023/05/16 09:22:06;;;;;;;35.55;15.05;;;;;;;;;;6187236;23;20000;-78
2023/05/16 09:24:32;;;;;;;29.42;10.77;;;;;;;;;;6214143;23;20034;-77
2023/05/16 09:26:57;;;;;;;22.48;10.45;;;;;;;;;;6214444;23;20001;-78
2023/05/16 09:29:22;;;;;;;32.63;12.70;;;;;;;;;;6186920;23;20012;-78
2023/05/16 09:31:48;;;;;;;32.80;11.82;;;;;;;;;;6186685;23;20004;-78
2023/05/16 09:34:13;;;;;;;23.98;11.23;;;;;;;;;;6213706;23;20036;-78
2023/05/16 09:36:39;;;;;;;19.60;10.60;;;;;;;;;;6213830;23;20001;-78
2023/05/16 09:39:06;;;;;;;20.10;10.30;;;;;;;;;;6213221;23;20436;-78
2023/05/16 09:41:35;;;;;;;22.17;10.73;;;;;;;;;;6213104;23;20000;-78
2023/05/16 09:44:05;;;;;;;25.45;11.32;;;;;;;;;;6211754;23;20059;-78
2023/05/16 09:46:31;;;;;;;30.77;11.20;;;;;;;;;;6187092;23;20065;-78
2023/05/16 09:49:17;;;;;;;24.27;11.55;;;;;;;;;;6187720;23;20428;-86
2023/05/16 09:51:42;;;;;;;18.83;10.40;;;;;;;;;;6193383;23;20012;-89
2023/05/16 09:54:08;;;;;;;22.08;9.90;;;;;;;;;;6212329;23;20003;-89
2023/05/16 09:56:34;;;;;;;22.98;12.20;;;;;;;;;;6213615;23;20348;-88
2023/05/16 09:58:59;;;;;;;23.80;11.93;;;;;;;;;;6164046;23;20004;-89
2023/05/16 10:01:25;;;;;;;25.50;10.73;;;;;;;;;;6189543;23;20148;-91
2023/05/16 10:03:50;;;;;;;20.67;10.90;;;;;;;;;;6189646;23;20004;-90
2023/05/16 10:06:16;;;;;;;30.15;11.00;;;;;;;;;;6189921;23;20099;-90
2023/05/16 10:08:42;;;;;;;26.48;10.82;;;;;;;;;;6189348;23;20008;-90
2023/05/16 10:11:07;;;;;;;24.33;11.45;;;;;;;;;;6189437;23;20454;-91
2023/05/16 10:13:33;;;;;;;20.35;11.10;;;;;;;;;;6164249;23;20097;-88
2023/05/16 10:16:00;;;;;;;20.10;11.02;;;;;;;;;;6214407;23;20013;-90
2023/05/16 10:18:30;;;;;;;20.02;11.05;;;;;;;;;;6190486;23;20001;-88
2023/05/16 10:20:56;;;;;;;38.85;17.65;;;;;;;;;;6188625;23;20326;-83
2023/05/16 10:23:22;;;;;;;30.40;14.23;;;;;;;;;;6164453;23;20432;-84
2023/05/16 10:25:48;;;;;;;25.45;10.70;;;;;;;;;;6189294;23;20015;-83
2023/05/16 10:28:15;;;;;;;20.83;11.10;;;;;;;;;;6164174;23;20100;-85
2023/05/16 10:30:42;;;;;;;20.88;10.90;;;;;;;;;;6165289;23;20373;-84
2023/05/16 10:33:09;;;;;;;39.33;17.42;;;;;;;;;;6214536;23;20074;-88
2023/05/16 10:35:34;;;;;;;27.08;11.98;;;;;;;;;;6190128;23;20336;-87
2023/05/16 10:38:00;;;;;;;19.75;11.25;;;;;;;;;;6163959;23;20000;-88
2023/05/16 10:40:26;;;;;;;23.08;11.65;;;;;;;;;;6164535;23;20464;-85
2023/05/16 10:43:02;;;;;;;39.00;17.55;;;;;;;;;;6163984;23;20004;-88
2023/05/16 10:45:28;;;;;;;41.72;17.90;;;;;;;;;;6212072;23;20001;-88
2023/05/16 10:48:00;;;;;;;30.13;14.35;;;;;;;;;;6213932;23;19996;-88
2023/05/16 10:50:42;;;;;;;24.70;13.05;;;;;;;;;;6186955;23;20019;-89
2023/05/16 10:53:15;;;;;;;36.45;14.38;;;;;;;;;;6189608;23;20343;-88
2023/05/16 10:55:50;;;;;;;30.42;13.85;;;;;;;;;;6163150;23;20424;-85
2023/05/16 10:58:32;;;;;;;29.40;13.93;;;;;;;;;;6213146;23;20276;-84
2023/05/16 11:01:17;;;;;;;25.40;12.50;;;;;;;;;;6193698;23;20099;-88
2023/05/16 11:06:33;;;;;;;19.23;11.48;;;;;;;;;;6214889;23;20036;-88
2023/05/16 11:11:51;;;;;;;25.98;12.43;;;;;;;;;;6231912;23;20009;-89
2023/05/16 11:14:23;;;;;;;25.85;11.85;;;;;;;;;;6207106;23;20059;-89
2023/05/16 11:17:05;;;;;;;30.48;13.23;;;;;;;;;;6239426;23;20056;-89
2023/05/16 11:19:46;;;;;;;37.55;16.92;;;;;;;;;;6171403;23;20061;-86
2023/05/16 11:22:41;;;;;;;34.00;13.82;;;;;;;;;;6222674;23;20040;-88
2023/05/16 11:25:07;;;;;;;32.17;13.43;;;;;;;;;;6212447;23;20008;-87
2023/05/16 11:27:36;;;;;;;34.80;13.35;;;;;;;;;;6163283;23;20552;-90
2023/05/16 11:30:04;;;;;;;34.47;12.63;;;;;;;;;;6214252;23;20005;-86
2023/05/16 11:32:32;;;;;;;40.33;17.35;;;;;;;;;;6216229;23;19997;-87
2023/05/16 11:34:58;;;;;;;26.77;13.73;;;;;;;;;;6166019;23;20416;-87
2023/05/16 11:37:23;;;;;;;29.27;13.10;;;;;;;;;;6164966;23;20094;-88
2023/05/16 11:39:49;;;;;;;32.33;12.90;;;;;;;;;;6187861;23;20079;-87
2023/05/16 11:42:16;;;;;;;26.67;12.55;;;;;;;;;;6213922;23;20000;-85
2023/05/16 11:44:42;;;;;;;27.20;13.07;;;;;;;;;;6164062;23;20394;-85
2023/05/16 11:47:07;;;;;;;28.30;13.32;;;;;;;;;;6189144;23;20001;-86
2023/05/16 11:49:34;;;;;;;31.50;13.38;;;;;;;;;;6189468;23;20016;-84
2023/05/16 11:51:59;;;;;;;31.20;12.77;;;;;;;;;;6188714;23;20063;-85
2023/05/16 11:54:25;;;;;;;27.58;12.80;;;;;;;;;;6188438;23;20004;-85
2023/05/16 11:56:51;;;;;;;25.95;12.45;;;;;;;;;;6215421;23;20020;-85
2023/05/16 11:59:17;;;;;;;28.45;13.05;;;;;;;;;;6189739;23;20005;-84
2023/05/16 12:01:43;;;;;;;32.63;13.45;;;;;;;;;;6214981;23;20004;-87
2023/05/16 12:04:09;;;;;;;28.65;12.90;;;;;;;;;;6191110;23;20000;-88
2023/05/16 12:06:35;;;;;;;26.25;13.32;;;;;;;;;;6188332;23;20005;-87
2023/05/16 12:09:09;;;;;;;30.25;12.73;;;;;;;;;;6189877;23;20374;-87
2023/05/16 12:11:36;;;;;;;33.78;13.95;;;;;;;;;;6168580;23;20425;-88
2023/05/16 12:14:01;;;;;;;26.92;13.13;;;;;;;;;;6216447;23;20001;-88
2023/05/16 12:16:27;;;;;;;32.45;13.75;;;;;;;;;;6191757;23;20051;-87
2023/05/16 12:18:53;;;;;;;27.92;12.38;;;;;;;;;;6190972;23;20005;-88
2023/05/16 12:21:18;;;;;;;26.42;13.20;;;;;;;;;;6214676;23;20000;-87
2023/05/16 12:23:43;;;;;;;27.80;13.18;;;;;;;;;;6215341;23;20091;-88
2023/05/16 12:26:09;;;;;;;25.33;12.15;;;;;;;;;;6215742;23;20096;-87
2023/05/16 12:28:35;;;;;;;32.00;12.68;;;;;;;;;;6217413;23;20005;-87
2023/05/16 12:31:00;;;;;;;28.60;12.55;;;;;;;;;;6215504;23;20054;-87
2023/05/16 12:33:26;;;;;;;25.30;12.68;;;;;;;;;;6214198;23;20001;-86
2023/05/16 12:35:52;;;;;;;30.58;12.90;;;;;;;;;;6190481;23;20063;-87
2023/05/16 12:38:18;;;;;;;25.65;12.77;;;;;;;;;;6189876;23;20059;-88
2023/05/16 12:40:43;;;;;;;22.77;12.60;;;;;;;;;;6216314;23;20004;-87
2023/05/16 12:43:27;;;;;;;26.17;12.60;;;;;;;;;;6189438;23;20600;-88
2023/05/16 12:45:54;;;;;;;29.25;12.40;;;;;;;;;;6213771;23;20012;-87
2023/05/16 12:48:20;;;;;;;37.92;13.77;;;;;;;;;;6214351;23;20000;-88
2023/05/16 12:50:46;;;;;;;31.10;13.80;;;;;;;;;;6213704;23;20031;-88
2023/05/16 12:53:12;;;;;;;31.98;14.07;;;;;;;;;;6188814;23;20007;-88
2023/05/16 12:55:38;;;;;;;30.42;14.52;;;;;;;;;;6217965;23;20008;-89
2023/05/16 12:58:03;;;;;;;28.75;13.95;;;;;;;;;;6214953;23;20133;-88
2023/05/16 13:00:30;;;;;;;25.52;13.80;;;;;;;;;;6216050;23;20063;-87
2023/05/16 13:02:56;;;;;;;34.88;14.32;;;;;;;;;;6214543;23;20487;-87
2023/05/16 13:05:22;;;;;;;29.63;14.60;;;;;;;;;;6214752;23;20012;-87
2023/05/16 13:07:50;;;;;;;34.35;14.68;;;;;;;;;;6187958;23;20004;-88
2023/05/16 13:10:15;;;;;;;29.38;13.38;;;;;;;;;;6163561;23;20103;-87
2023/05/16 13:12:41;;;;;;;28.73;13.73;;;;;;;;;;6164817;23;20027;-87
2023/05/16 13:15:07;;;;;;;30.00;14.02;;;;;;;;;;6191336;23;20004;-88
2023/05/16 13:17:39;;;;;;;28.88;14.38;;;;;;;;;;6189990;23;20201;-88
2023/05/16 13:20:08;;;;;;;32.05;15.63;;;;;;;;;;6188358;23;20028;-88
2023/05/16 13:22:37;;;;;;;40.27;16.50;;;;;;;;;;6189028;23;20363;-88
2023/05/16 13:25:06;;;;;;;37.55;16.67;;;;;;;;;;6214039;23;20008;-88
2023/05/16 13:27:31;;;;;;;33.90;16.83;;;;;;;;;;6212904;23;20004;-89
2023/05/16 13:29:57;;;;;;;32.83;16.92;;;;;;;;;;6167682;23;20078;-89
2023/05/16 13:32:24;;;;;;;43.42;18.13;;;;;;;;;;6198584;23;20004;-88
2023/05/16 13:34:49;;;;;;;39.88;16.25;;;;;;;;;;6166327;23;20324;-87
2023/05/16 13:37:14;;;;;;;38.67;17.52;;;;;;;;;;6218944;23;20062;-87
2023/05/16 13:39:40;;;;;;;34.95;17.35;;;;;;;;;;6222121;23;19997;-87
2023/05/16 13:42:05;;;;;;;46.72;18.48;;;;;;;;;;6197375;23;20364;-89
2023/05/16 13:44:32;;;;;;;39.17;17.55;;;;;;;;;;6203101;23;20027;-88
2023/05/16 13:46:57;;;;;;;39.72;17.63;;;;;;;;;;6226593;23;20340;-88
2023/05/16 13:49:22;;;;;;;35.78;17.38;;;;;;;;;;6200052;23;20004;-89
2023/05/16 13:51:48;;;;;;;38.88;18.25;;;;;;;;;;6222344;23;20091;-88
2023/05/16 13:54:13;;;;;;;40.90;18.63;;;;;;;;;;6221809;23;20005;-89
2023/05/16 13:56:39;;;;;;;40.95;19.00;;;;;;;;;;6222529;23;20062;-88
2023/05/16 13:59:04;;;;;;;36.67;17.27;;;;;;;;;;6226147;23;20009;-88
2023/05/16 14:01:30;;;;;;;33.92;17.00;;;;;;;;;;6195585;23;20008;-87
2023/05/16 14:03:55;;;;;;;34.08;16.92;;;;;;;;;;6188960;23;20000;-88
2023/05/16 14:06:21;;;;;;;31.30;15.63;;;;;;;;;;6213695;23;20011;-89
2023/05/16 14:08:46;;;;;;;37.00;16.58;;;;;;;;;;6189222;23;20004;-88
2023/05/16 14:11:12;;;;;;;32.22;15.82;;;;;;;;;;6189581;23;20012;-89
2023/05/16 14:13:39;;;;;;;34.47;15.65;;;;;;;;;;6189624;23;20001;-88
2023/05/16 14:16:05;;;;;;;33.65;15.23;;;;;;;;;;6189146;23;20005;-88
2023/05/16 14:18:30;;;;;;;41.85;16.80;;;;;;;;;;6213630;23;20032;-89
2023/05/16 14:20:56;;;;;;;33.78;15.65;;;;;;;;;;6188538;23;20000;-88
2023/05/16 14:23:21;;;;;;;34.65;16.08;;;;;;;;;;6187180;23;20435;-87
2023/05/16 14:25:47;;;;;;;31.13;15.95;;;;;;;;;;6186799;23;20079;-78